Time;durP1;ratioP1;P1;durP2;ratioP2;P2;SDS_P1;SDS_P2;PMS_P1;PMS_P2;Temp;Humidity;BMP_temperature;BMP_pressure;BME280_temperature;BME280_humidity;BME280_pressure;Samples;Min_cycle;Max_cycle;Signal;HPM_P1;HPM_P2
2024/03/12 00:00:19;;;;;;;5.43;1.02;;;17.90;59.40;;;;;;6070297;23;20161;-84
2024/03/12 00:02:47;;;;;;;3.42;1.25;;;17.70;59.40;;;;;;6022404;23;20186;-84
2024/03/12 00:05:14;;;;;;;3.63;1.25;;;17.70;59.60;;;;;;6021378;23;20192;-84
2024/03/12 00:07:42;;;;;;;2.28;1.02;;;17.80;59.60;;;;;;6048445;23;20158;-84
2024/03/12 00:10:17;;;;;;;3.78;1.10;;;17.70;60.40;;;;;;6085533;23;20159;-85
2024/03/12 00:12:47;;;;;;;2.58;0.93;;;17.70;59.80;;;;;;6158150;23;20159;-84
2024/03/12 00:15:31;;;;;;;1.67;1.00;;;17.70;60.20;;;;;;6087160;23;20626;-84
2024/03/12 00:17:58;;;;;;;3.45;1.25;;;17.80;59.60;;;;;;6087611;23;20167;-85
2024/03/12 00:20:29;;;;;;;3.40;1.00;;;17.70;59.60;;;;;;6110776;23;20159;-85
2024/03/12 00:22:55;;;;;;;2.25;1.08;;;17.70;59.60;;;;;;6088707;23;20154;-84
2024/03/12 00:25:23;;;;;;;3.90;1.20;;;17.70;59.60;;;;;;6092164;23;20231;-83
2024/03/12 00:27:56;;;;;;;3.80;1.20;;;17.80;60.40;;;;;;6033320;23;20155;-84
2024/03/12 00:30:25;;;;;;;3.88;1.10;;;17.70;59.70;;;;;;6070930;23;20156;-84
2024/03/12 00:32:57;;;;;;;2.72;1.00;;;17.60;59.70;;;;;;6170699;23;20208;-84
2024/03/12 00:35:24;;;;;;;2.28;0.90;;;17.60;59.60;;;;;;6170119;23;20477;-85
2024/03/12 00:37:51;;;;;;;3.75;1.10;;;17.70;59.40;;;;;;6194631;23;20166;-85
2024/03/12 00:40:22;;;;;;;3.22;1.10;;;17.70;59.50;;;;;;6169865;23;20134;-85
2024/03/12 00:42:48;;;;;;;5.75;1.33;;;17.70;59.70;;;;;;6145091;23;20157;-84
2024/03/12 00:45:19;;;;;;;2.97;0.90;;;17.60;59.60;;;;;;6170344;23;20162;-85
2024/03/12 00:47:52;;;;;;;3.50;1.13;;;17.70;59.60;;;;;;6170756;23;20256;-85
2024/03/12 00:50:20;;;;;;;2.78;1.20;;;17.60;59.60;;;;;;6170659;23;20150;-85
2024/03/12 00:52:49;;;;;;;1.65;1.23;;;17.70;59.40;;;;;;6170873;23;20131;-84
2024/03/12 00:55:20;;;;;;;2.70;1.10;;;17.70;59.40;;;;;;6146789;23;20573;-84
2024/03/12 00:57:53;;;;;;;1.75;0.98;;;17.70;59.70;;;;;;6169679;23;20168;-84
2024/03/12 01:03:08;;;;;;;6.22;1.52;;;17.70;59.40;;;;;;6175785;23;20165;-84
2024/03/12 01:05:37;;;;;;;1.90;0.98;;;17.70;59.50;;;;;;6168605;23;20189;-84
2024/03/12 01:08:07;;;;;;;2.60;1.10;;;17.70;59.40;;;;;;6119971;23;20154;-83
2024/03/12 01:10:35;;;;;;;4.00;1.13;;;17.70;59.40;;;;;;6221678;23;20162;-84
2024/03/12 01:13:08;;;;;;;3.15;1.15;;;17.70;59.30;;;;;;6144515;23;20161;-84
2024/03/12 01:15:39;;;;;;;3.70;1.10;;;17.60;59.90;;;;;;6169219;23;20158;-84
2024/03/12 01:18:05;;;;;;;2.67;1.10;;;17.60;59.30;;;;;;6169232;23;20173;-85
2024/03/12 01:20:34;;;;;;;2.28;1.00;;;17.60;59.10;;;;;;6145835;23;20142;-84
2024/03/12 01:22:59;;;;;;;3.00;1.10;;;17.60;59.40;;;;;;6170269;23;20210;-85
2024/03/12 01:25:34;;;;;;;2.83;1.20;;;17.60;59.40;;;;;;6184193;23;20208;-85
2024/03/12 01:28:05;;;;;;;2.00;1.00;;;17.60;59.50;;;;;;6194005;23;20649;-85
2024/03/12 01:30:31;;;;;;;2.15;1.10;;;17.60;59.60;;;;;;6194053;23;20612;-84
2024/03/12 01:33:05;;;;;;;2.85;1.02;;;17.60;59.40;;;;;;6219890;23;20149;-84
2024/03/12 01:35:37;;;;;;;2.28;1.10;;;17.60;59.40;;;;;;6193581;23;20158;-84
2024/03/12 01:38:04;;;;;;;2.63;1.10;;;17.70;59.40;;;;;;6168677;23;20161;-84
2024/03/12 01:40:33;;;;;;;2.63;1.10;;;17.60;59.20;;;;;;6194101;23;20150;-84
2024/03/12 01:43:03;;;;;;;2.05;0.88;;;17.70;59.30;;;;;;6219491;23;20466;-84
2024/03/12 01:45:33;;;;;;;4.30;1.30;;;17.60;59.30;;;;;;6193325;23;20257;-85
2024/03/12 01:48:07;;;;;;;1.77;1.25;;;17.60;59.40;;;;;;6193124;23;20154;-84
2024/03/12 01:50:34;;;;;;;2.33;1.00;;;17.60;59.30;;;;;;6193749;23;20705;-84
2024/03/12 01:53:06;;;;;;;2.97;1.00;;;17.60;59.30;;;;;;6169878;23;20157;-84
2024/03/12 01:55:37;;;;;;;2.92;1.10;;;17.70;59.20;;;;;;6193205;23;20153;-84
2024/03/12 01:58:04;;;;;;;2.05;1.30;;;17.70;59.20;;;;;;6194929;23;20208;-85
2024/03/12 02:00:33;;;;;;;1.65;1.20;;;17.60;59.10;;;;;;6218902;23;20157;-84
2024/03/12 02:03:00;;;;;;;4.47;1.20;;;17.60;59.20;;;;;;6195077;23;20150;-84
2024/03/12 02:05:29;;;;;;;1.48;1.00;;;17.60;59.20;;;;;;6218859;23;20178;-84
2024/03/12 02:07:55;;;;;;;2.33;0.98;;;17.70;59.00;;;;;;6194016;23;20578;-84
2024/03/12 02:10:23;;;;;;;2.70;1.08;;;17.60;59.10;;;;;;6194895;23;20153;-84
2024/03/12 02:12:50;;;;;;;1.77;1.00;;;17.60;59.10;;;;;;6193709;23;20279;-85
2024/03/12 02:15:17;;;;;;;2.53;1.20;;;17.60;59.10;;;;;;6192777;23;20158;-85
2024/03/12 02:17:45;;;;;;;5.35;1.25;;;17.60;59.20;;;;;;6168145;23;20157;-85
2024/03/12 02:20:17;;;;;;;3.75;1.20;;;17.60;59.20;;;;;;6194005;23;20169;-84
2024/03/12 02:22:43;;;;;;;2.83;1.08;;;17.60;59.00;;;;;;6219130;23;20149;-84
2024/03/12 02:25:13;;;;;;;1.60;0.80;;;17.60;59.20;;;;;;6193681;23;20189;-84
2024/03/12 02:27:41;;;;;;;1.55;1.00;;;17.60;59.10;;;;;;6193517;23;20251;-84
2024/03/12 02:30:09;;;;;;;3.72;1.17;;;17.50;59.20;;;;;;6192889;23;20184;-84
2024/03/12 02:32:38;;;;;;;1.25;0.88;;;17.60;59.10;;;;;;6192586;23;20181;-85
2024/03/12 02:35:10;;;;;;;1.77;1.10;;;17.50;59.30;;;;;;6194468;23;20161;-84
2024/03/12 02:37:38;;;;;;;2.50;0.98;;;17.60;59.30;;;;;;6138143;23;20155;-85
2024/03/12 02:40:09;;;;;;;3.42;1.20;;;17.60;59.30;;;;;;6114765;23;20769;-85
2024/03/12 02:42:36;;;;;;;2.15;1.05;;;17.50;59.20;;;;;;6163014;23;20151;-84
2024/03/12 02:45:06;;;;;;;2.85;1.20;;;17.60;59.20;;;;;;6138651;23;20167;-84
2024/03/12 02:47:32;;;;;;;1.60;1.02;;;17.60;59.20;;;;;;6163216;23;20237;-85
2024/03/12 02:49:59;;;;;;;2.03;1.10;;;17.50;59.20;;;;;;6138339;23;20143;-84
2024/03/12 02:52:26;;;;;;;2.35;1.13;;;17.60;59.40;;;;;;6163230;23;20178;-84
2024/03/12 02:54:55;;;;;;;2.65;1.45;;;17.50;59.00;;;;;;6113074;23;20278;-84
2024/03/12 02:57:25;;;;;;;2.13;1.02;;;17.50;59.10;;;;;;6137753;23;20655;-84
2024/03/12 02:59:52;;;;;;;2.65;1.00;;;17.50;59.10;;;;;;6138514;23;20225;-84
2024/03/12 03:02:20;;;;;;;3.35;1.02;;;17.50;59.00;;;;;;6138465;23;20154;-84
2024/03/12 03:04:49;;;;;;;1.63;0.90;;;17.50;59.10;;;;;;6113434;23;20333;-84
2024/03/12 03:07:19;;;;;;;2.33;1.00;;;17.50;59.10;;;;;;6139303;23;20138;-84
2024/03/12 03:09:46;;;;;;;2.13;1.20;;;17.50;59.00;;;;;;6218616;23;20157;-83
2024/03/12 03:12:16;;;;;;;1.10;0.85;;;17.50;59.30;;;;;;6219010;23;20138;-85
2024/03/12 03:14:42;;;;;;;2.03;1.15;;;17.50;59.30;;;;;;6192928;23;20603;-85
2024/03/12 03:17:10;;;;;;;1.75;0.90;;;17.50;59.10;;;;;;6194470;23;20146;-84
2024/03/12 03:19:38;;;;;;;3.92;0.93;;;17.60;59.20;;;;;;6195159;23;20173;-84
2024/03/12 03:22:04;;;;;;;1.85;1.00;;;17.60;59.30;;;;;;6199102;23;20156;-84
2024/03/12 03:24:30;;;;;;;3.50;1.10;;;17.50;59.00;;;;;;6175321;23;20205;-83
2024/03/12 03:26:57;;;;;;;3.15;1.00;;;17.50;59.20;;;;;;6173670;23;20150;-84
2024/03/12 03:29:32;;;;;;;2.28;1.00;;;17.50;59.40;;;;;;6169382;23;20146;-84
2024/03/12 03:32:06;;;;;;;2.33;1.00;;;17.50;59.20;;;;;;6119227;23;20145;-84
2024/03/12 03:34:33;;;;;;;1.20;0.90;;;17.40;59.10;;;;;;6168787;23;20159;-84
2024/03/12 03:37:03;;;;;;;1.42;0.90;;;17.50;59.20;;;;;;6144317;23;20215;-84
2024/03/12 03:39:28;;;;;;;2.55;1.02;;;17.50;59.30;;;;;;6143046;23;20540;-84
2024/03/12 03:41:55;;;;;;;3.65;1.10;;;17.50;59.30;;;;;;6169284;23;20201;-84
2024/03/12 03:44:28;;;;;;;1.13;0.80;;;17.40;59.20;;;;;;6169146;23;20189;-84
2024/03/12 03:46:54;;;;;;;1.40;0.90;;;17.50;59.20;;;;;;6145186;23;20150;-84
2024/03/12 03:49:21;;;;;;;2.38;1.10;;;17.50;59.30;;;;;;6158157;23;20158;-84
2024/03/12 03:51:50;;;;;;;2.90;1.10;;;17.40;59.40;;;;;;6087051;23;20151;-84
2024/03/12 03:54:16;;;;;;;2.58;1.10;;;17.40;59.20;;;;;;6110233;23;20166;-84
2024/03/12 03:56:45;;;;;;;2.00;0.90;;;17.40;59.20;;;;;;6110604;23;20155;-84
2024/03/12 03:59:15;;;;;;;1.60;1.10;;;17.40;59.40;;;;;;6111177;23;20471;-84
2024/03/12 04:01:47;;;;;;;2.00;1.00;;;17.40;59.20;;;;;;6111815;23;20147;-84
2024/03/12 04:04:15;;;;;;;2.47;1.30;;;17.50;59.10;;;;;;6086858;23;20245;-84
2024/03/12 04:06:46;;;;;;;1.80;1.27;;;17.40;59.30;;;;;;6087327;23;20151;-84
2024/03/12 04:09:12;;;;;;;3.50;0.98;;;17.40;59.10;;;;;;6134391;23;20155;-84
2024/03/12 04:11:38;;;;;;;5.63;1.20;;;17.30;59.10;;;;;;6110717;23;20559;-83
2024/03/12 04:14:07;;;;;;;1.77;0.93;;;17.40;59.30;;;;;;6110487;23;20178;-84
2024/03/12 04:16:37;;;;;;;1.85;1.00;;;17.40;59.30;;;;;;6111186;23;20156;-84
2024/03/12 04:19:11;;;;;;;1.83;0.93;;;17.40;59.40;;;;;;6085806;23;20159;-84
2024/03/12 04:21:38;;;;;;;2.03;1.13;;;17.30;59.30;;;;;;6110438;23;20683;-84
2024/03/12 04:24:05;;;;;;;1.92;0.98;;;17.30;59.20;;;;;;6113314;23;20167;-84
2024/03/12 04:26:31;;;;;;;1.35;0.80;;;17.50;59.30;;;;;;6115595;23;20150;-83
2024/03/12 04:28:58;;;;;;;2.30;1.27;;;17.40;59.10;;;;;;6139778;23;20174;-84
2024/03/12 04:31:27;;;;;;;1.88;1.20;;;17.40;59.00;;;;;;6139719;23;20193;-84
2024/03/12 04:33:53;;;;;;;2.22;0.95;;;17.30;59.20;;;;;;6156865;23;20154;-85
2024/03/12 04:36:32;;;;;;;3.35;1.10;;;17.30;59.20;;;;;;6195924;23;20200;-84
2024/03/12 04:39:00;;;;;;;2.30;1.13;;;17.40;59.10;;;;;;6137288;23;20151;-84
2024/03/12 04:41:39;;;;;;;1.55;1.05;;;17.40;59.20;;;;;;6087770;23;20622;-85
2024/03/12 04:44:08;;;;;;;2.90;1.10;;;17.40;59.20;;;;;;6078461;23;20619;-84
2024/03/12 04:46:37;;;;;;;2.85;1.10;;;17.30;59.20;;;;;;6079075;23;20200;-84
2024/03/12 04:49:07;;;;;;;2.13;0.98;;;17.40;59.30;;;;;;6054847;23;20152;-84
2024/03/12 04:51:33;;;;;;;3.38;1.10;;;17.30;59.20;;;;;;6078819;23;20149;-84
2024/03/12 04:54:00;;;;;;;2.10;1.10;;;17.30;59.10;;;;;;6077573;23;20157;-84
2024/03/12 04:56:29;;;;;;;2.53;0.80;;;17.40;59.20;;;;;;6078786;23;20153;-84
2024/03/12 04:58:55;;;;;;;2.67;1.02;;;17.30;59.40;;;;;;6078380;23;20152;-85
2024/03/12 05:01:23;;;;;;;2.20;0.95;;;17.30;59.40;;;;;;6078211;23;20168;-84
2024/03/12 05:03:49;;;;;;;2.15;0.93;;;17.30;59.30;;;;;;6075323;23;20152;-85
2024/03/12 05:06:16;;;;;;;1.63;1.23;;;17.30;59.20;;;;;;6076260;23;20176;-84
2024/03/12 05:08:43;;;;;;;1.75;1.00;;;17.30;60.00;;;;;;6078338;23;20251;-84
2024/03/12 05:11:14;;;;;;;2.08;1.00;;;17.30;59.00;;;;;;6188781;23;20135;-85
2024/03/12 05:13:42;;;;;;;1.67;1.00;;;17.30;59.00;;;;;;6138607;23;20178;-84
2024/03/12 05:16:09;;;;;;;1.25;0.93;;;17.40;58.90;;;;;;6138759;23;20242;-84
2024/03/12 05:18:43;;;;;;;1.85;1.08;;;17.40;59.10;;;;;;6138643;23;20158;-84
2024/03/12 05:21:21;;;;;;;1.65;1.00;;;17.30;59.00;;;;;;6176010;23;20150;-84
2024/03/12 05:23:48;;;;;;;1.77;1.08;;;17.30;59.00;;;;;;6194375;23;20157;-85
2024/03/12 05:26:25;;;;;;;2.35;1.30;;;17.30;59.00;;;;;;6194366;23;20197;-85
2024/03/12 05:28:58;;;;;;;3.53;1.10;;;17.30;59.10;;;;;;6195404;23;20150;-84
2024/03/12 05:31:32;;;;;;;2.45;1.13;;;17.30;59.00;;;;;;6194241;23;20153;-84
2024/03/12 05:34:00;;;;;;;2.72;1.13;;;17.40;58.90;;;;;;6194813;23;20150;-83
2024/03/12 05:36:40;;;;;;;2.38;1.30;;;17.30;59.10;;;;;;6195255;23;20586;-84
2024/03/12 05:39:15;;;;;;;2.17;0.90;;;17.30;59.10;;;;;;6173788;23;20152;-84
2024/03/12 05:41:49;;;;;;;1.98;0.90;;;17.40;59.10;;;;;;6197228;23;20232;-85
2024/03/12 05:49:31;;;;;;;2.33;1.10;;;17.30;59.10;;;;;;6199347;23;20154;-84
2024/03/12 05:51:58;;;;;;;2.45;1.02;;;17.30;59.50;;;;;;6221222;23;20173;-85
2024/03/12 05:54:24;;;;;;;2.63;0.82;;;17.30;59.00;;;;;;6195995;23;20150;-85
2024/03/12 05:56:54;;;;;;;1.70;1.10;;;17.30;59.00;;;;;;6222000;23;20146;-85
2024/03/12 05:59:22;;;;;;;2.25;0.90;;;17.30;59.00;;;;;;6196507;23;20582;-84
2024/03/12 06:01:51;;;;;;;1.67;1.10;;;17.30;59.10;;;;;;6222654;23;20130;-84
2024/03/12 06:04:17;;;;;;;2.45;1.08;;;17.30;59.10;;;;;;6222077;23;20237;-85
2024/03/12 06:06:46;;;;;;;2.08;1.00;;;17.30;59.10;;;;;;6172852;23;20142;-85
2024/03/12 06:09:19;;;;;;;1.20;1.00;;;17.30;58.90;;;;;;6222766;23;20150;-84
2024/03/12 06:11:45;;;;;;;3.08;1.30;;;17.30;58.90;;;;;;6167081;23;20151;-85
2024/03/12 06:14:16;;;;;;;1.88;1.08;;;17.30;59.00;;;;;;6141978;23;20237;-84
2024/03/12 06:16:46;;;;;;;2.60;1.20;;;17.30;58.70;;;;;;6143895;23;20241;-84
2024/03/12 06:19:12;;;;;;;1.55;0.90;;;17.30;59.00;;;;;;6143577;23;20239;-86
2024/03/12 06:21:43;;;;;;;0.93;0.75;;;17.30;58.90;;;;;;6119145;23;20155;-84
2024/03/12 06:24:09;;;;;;;1.27;1.00;;;17.30;58.70;;;;;;6118477;23;20206;-85
2024/03/12 06:26:34;;;;;;;3.08;1.13;;;17.30;58.90;;;;;;6144364;23;20151;-85
2024/03/12 06:29:06;;;;;;;2.30;0.88;;;17.40;58.80;;;;;;6193642;23;20134;-84
2024/03/12 06:31:36;;;;;;;1.77;1.10;;;17.30;58.70;;;;;;6120209;23;20150;-85
2024/03/12 06:34:02;;;;;;;1.48;1.10;;;17.30;58.70;;;;;;6096195;23;20154;-85
2024/03/12 06:36:32;;;;;;;1.65;1.10;;;17.30;58.90;;;;;;6145720;23;20151;-85
2024/03/12 06:39:00;;;;;;;1.60;1.08;;;17.30;58.60;;;;;;6098172;23;20153;-85
2024/03/12 06:41:33;;;;;;;2.28;1.10;;;17.30;59.00;;;;;;6147906;23;20140;-85
2024/03/12 06:44:00;;;;;;;1.92;0.80;;;17.30;58.80;;;;;;6152112;23;20150;-85
2024/03/12 06:46:29;;;;;;;3.03;1.20;;;17.40;58.70;;;;;;6226322;23;20623;-84
2024/03/12 06:48:58;;;;;;;2.33;1.33;;;17.40;58.30;;;;;;6203828;23;20150;-85
2024/03/12 06:51:24;;;;;;;2.92;1.35;;;17.40;57.90;;;;;;6204050;23;20177;-85
2024/03/12 06:53:56;;;;;;;4.10;1.05;;;17.50;58.10;;;;;;6203496;23;20161;-85
2024/03/12 06:56:28;;;;;;;2.78;1.13;;;17.40;58.50;;;;;;6202356;23;20214;-85
2024/03/12 06:58:59;;;;;;;3.13;1.48;;;17.40;59.10;;;;;;6180411;23;20176;-84
2024/03/12 07:01:26;;;;;;;1.95;0.80;;;17.40;59.00;;;;;;6204126;23;20149;-85
2024/03/12 07:03:57;;;;;;;2.03;1.02;;;17.40;59.10;;;;;;6203332;23;20137;-84
2024/03/12 07:06:30;;;;;;;2.67;1.10;;;17.40;59.20;;;;;;6204865;23;20173;-85
2024/03/12 07:09:03;;;;;;;1.13;0.98;;;17.40;59.00;;;;;;6151796;23;20232;-85
2024/03/12 07:11:29;;;;;;;1.75;1.10;;;17.40;58.70;;;;;;6177094;23;20241;-84
2024/03/12 07:14:27;;;;;;;3.17;1.23;;;17.30;58.50;;;;;;6175036;23;20150;-85
2024/03/12 07:16:56;;;;;;;2.22;1.20;;;17.40;58.30;;;;;;6111234;23;20148;-85
2024/03/12 07:19:23;;;;;;;2.53;1.00;;;17.50;58.00;;;;;;6086348;23;20159;-85
2024/03/12 07:21:50;;;;;;;1.67;1.10;;;17.50;58.10;;;;;;6061963;23;20148;-85
2024/03/12 07:24:17;;;;;;;2.03;0.90;;;17.50;58.00;;;;;;6079806;23;20256;-85
2024/03/12 07:26:50;;;;;;;3.15;1.13;;;17.50;57.90;;;;;;6057254;23;20176;-85
2024/03/12 07:29:18;;;;;;;2.33;1.10;;;17.50;57.60;;;;;;6010165;23;20152;-85
2024/03/12 07:31:46;;;;;;;1.58;1.08;;;17.50;57.50;;;;;;6032319;23;20152;-85
2024/03/12 07:34:15;;;;;;;3.45;1.10;;;17.50;57.50;;;;;;6056068;23;20212;-85
2024/03/12 07:36:44;;;;;;;1.48;1.02;;;17.60;57.00;;;;;;6011843;23;20160;-84
2024/03/12 07:39:24;;;;;;;1.75;1.00;;;17.60;57.30;;;;;;6109010;23;20152;-85
2024/03/12 07:42:19;;;;;;;;;;;;;;;;;;;;;
2024/03/12 07:44:50;;;;;;;1.65;0.95;;;17.50;57.50;;;;;;6149599;23;20189;-86
2024/03/12 07:48:04;;;;;;;;;;;;;;;;;;;;;
2024/03/12 07:50:19;;;;;;;1.75;1.10;;;17.60;57.60;;;;;;6128114;23;20152;-86
2024/03/12 07:53:06;;;;;;;1.65;1.15;;;17.60;57.50;;;;;;6054353;23;20217;-85
2024/03/12 07:55:45;;;;;;;2.60;0.98;;;17.60;57.60;;;;;;6026632;23;20222;-85
2024/03/12 07:58:52;;;;;;;1.30;0.93;;;17.60;58.00;;;;;;6025095;23;20288;-86
2024/03/12 08:01:29;;;;;;;2.25;0.82;;;17.50;58.00;;;;;;5981365;23;20169;-85
2024/03/12 08:04:01;;;;;;;1.67;1.00;;;17.50;57.60;;;;;;5951638;24;20290;-85
2024/03/12 08:06:40;;;;;;;1.85;0.90;;;17.60;57.70;;;;;;5970988;24;20160;-86
2024/03/12 08:09:19;;;;;;;1.08;0.93;;;17.60;57.70;;;;;;5971387;24;20174;-85
2024/03/12 08:11:53;;;;;;;1.75;0.93;;;17.60;57.90;;;;;;5969557;24;20223;-85
2024/03/12 08:14:57;;;;;;;2.05;1.15;;;17.50;57.80;;;;;;5972735;24;20246;-87
2024/03/12 08:17:40;;;;;;;2.70;1.00;;;17.60;58.00;;;;;;5953558;23;20155;-86
2024/03/12 08:20:17;;;;;;;2.30;1.00;;;17.50;58.00;;;;;;5998475;23;20649;-86
2024/03/12 08:23:15;;;;;;;1.08;0.98;;;17.60;57.70;;;;;;6000624;23;20163;-86
2024/03/12 08:26:12;;;;;;;2.10;1.10;;;17.50;57.90;;;;;;5993284;23;20718;-86
2024/03/12 08:28:52;;;;;;;;;;;;;;;;;;;;;
2024/03/12 08:31:33;;;;;;;2.35;1.00;;;17.60;57.70;;;;;;6051003;23;20157;-84
2024/03/12 08:34:14;;;;;;;1.67;0.80;;;17.60;57.60;;;;;;6033728;23;20154;-85
2024/03/12 08:36:51;;;;;;;1.42;1.10;;;17.60;57.80;;;;;;6060356;23;20153;-86
2024/03/12 08:39:40;;;;;;;2.10;1.02;;;17.60;57.70;;;;;;6036599;23;20157;-86
2024/03/12 08:42:16;;;;;;;2.63;1.00;;;17.50;58.50;;;;;;6044940;23;20232;-86
2024/03/12 08:44:48;;;;;;;1.23;0.80;;;17.60;57.50;;;;;;6054019;23;20181;-84
2024/03/12 08:47:29;;;;;;;1.17;0.90;;;17.70;57.30;;;;;;6017524;23;20156;-85
2024/03/12 08:50:08;;;;;;;2.90;1.00;;;17.60;56.90;;;;;;6022996;23;20182;-85
2024/03/12 08:53:02;;;;;;;1.17;1.00;;;17.70;57.30;;;;;;6024060;23;20218;-85
2024/03/12 08:55:34;;;;;;;1.83;1.00;;;17.70;56.90;;;;;;6043281;23;20153;-85
2024/03/12 08:58:05;;;;;;;5.20;1.20;;;17.70;57.50;;;;;;6053889;23;20256;-85
2024/03/12 09:00:57;;;;;;;3.03;0.90;;;17.70;57.50;;;;;;6060829;23;20158;-85
2024/03/12 09:03:32;;;;;;;4.68;1.00;;;17.70;57.40;;;;;;5992358;24;20160;-86
2024/03/12 09:06:28;;;;;;;3.00;1.05;;;17.80;57.50;;;;;;5977859;24;20186;-86
2024/03/12 09:09:05;;;;;;;1.25;0.80;;;17.70;57.30;;;;;;5977097;24;20204;-88
2024/03/12 09:11:42;;;;;;;2.45;1.17;;;17.80;57.30;;;;;;5915928;24;20166;-84
2024/03/12 09:14:50;;;;;;;3.97;1.00;;;17.70;57.20;;;;;;5914474;24;20177;-86
2024/03/12 09:17:15;;;;;;;0.95;0.80;;;17.80;57.10;;;;;;5945357;24;20205;-87
2024/03/12 09:19:45;;;;;;;5.63;1.10;;;17.80;56.90;;;;;;6014672;23;20526;-86
2024/03/12 09:22:12;;;;;;;1.45;0.95;;;17.80;57.00;;;;;;5984544;24;20179;-85
2024/03/12 09:24:38;;;;;;;2.38;0.98;;;17.90;57.30;;;;;;5985840;23;20203;-85
2024/03/12 09:27:04;;;;;;;5.00;1.20;;;17.80;57.30;;;;;;5986933;24;20161;-86
2024/03/12 09:29:39;;;;;;;5.60;1.20;;;17.90;57.00;;;;;;5986594;24;20151;-85
2024/03/12 09:32:09;;;;;;;5.43;0.82;;;17.90;57.20;;;;;;5961704;24;20159;-84
2024/03/12 09:34:40;;;;;;;2.95;1.05;;;17.80;57.10;;;;;;5930205;24;20191;-85
2024/03/12 09:37:11;;;;;;;2.75;1.20;;;17.80;57.00;;;;;;6070970;23;20224;-85
2024/03/12 09:39:38;;;;;;;1.80;0.75;;;17.80;57.10;;;;;;6081069;23;20243;-85
2024/03/12 09:42:09;;;;;;;5.63;1.20;;;17.90;57.00;;;;;;6078613;23;20156;-84
2024/03/12 09:44:37;;;;;;;5.15;1.52;;;17.90;56.80;;;;;;6078268;23;20184;-84
2024/03/12 09:47:07;;;;;;;1.58;1.02;;;17.90;56.90;;;;;;6078272;23;20596;-84
2024/03/12 09:49:35;;;;;;;1.17;1.08;;;17.90;56.90;;;;;;6075965;23;20156;-85
2024/03/12 09:52:07;;;;;;;1.73;0.93;;;17.90;57.00;;;;;;6076686;23;20149;-86
2024/03/12 09:54:38;;;;;;;2.58;1.10;;;17.90;57.00;;;;;;6110256;23;20159;-85
2024/03/12 09:57:07;;;;;;;1.60;1.17;;;18.00;56.50;;;;;;6038913;23;20156;-85
2024/03/12 09:59:35;;;;;;;2.28;0.80;;;18.00;56.80;;;;;;6082354;23;20170;-85
2024/03/12 10:02:05;;;;;;;2.88;1.05;;;18.00;56.70;;;;;;6021097;23;20154;-86
2024/03/12 10:04:34;;;;;;;2.33;0.98;;;18.00;57.00;;;;;;6026122;23;20190;-85
2024/03/12 10:07:01;;;;;;;1.13;0.90;;;18.00;57.00;;;;;;6055557;23;20159;-85
2024/03/12 10:09:30;;;;;;;1.77;0.90;;;18.00;57.40;;;;;;6081257;23;20274;-86
2024/03/12 10:12:01;;;;;;;3.45;0.93;;;18.00;56.70;;;;;;6079918;23;20184;-87
2024/03/12 10:14:36;;;;;;;2.28;0.80;;;18.00;57.00;;;;;;6082331;23;20161;-85
2024/03/12 10:17:13;;;;;;;2.80;0.98;;;17.90;56.90;;;;;;6057246;23;20156;-85
2024/03/12 10:19:50;;;;;;;2.05;1.00;;;18.00;56.70;;;;;;6105380;23;20153;-85
2024/03/12 11:08:38;;;;;;;3.00;1.00;;;18.10;56.80;;;;;;6156730;23;20210;-86
2024/03/12 11:11:10;;;;;;;2.10;1.10;;;18.10;56.70;;;;;;6145790;23;20178;-86
2024/03/12 11:13:38;;;;;;;1.45;1.00;;;18.20;56.20;;;;;;6144162;23;20211;-85
2024/03/12 11:16:17;;;;;;;3.63;1.02;;;18.20;56.20;;;;;;6119606;23;20143;-84
2024/03/12 11:18:48;;;;;;;3.72;0.90;;;18.30;56.00;;;;;;6119801;23;20163;-85
2024/03/12 11:21:37;;;;;;;1.58;0.80;;;18.30;55.90;;;;;;6073002;23;20194;-86
2024/03/12 11:24:03;;;;;;;1.48;0.80;;;18.30;56.00;;;;;;6098554;23;20151;-86
2024/03/12 11:26:30;;;;;;;1.17;0.90;;;18.30;55.80;;;;;;6122014;23;20158;-86
2024/03/12 11:28:59;;;;;;;1.95;1.00;;;18.30;55.60;;;;;;6124805;23;20143;-85
2024/03/12 11:31:38;;;;;;;2.47;1.20;;;18.30;55.90;;;;;;6098290;23;20151;-86
2024/03/12 11:34:08;;;;;;;2.45;1.05;;;18.30;55.90;;;;;;6093319;23;20154;-86
2024/03/12 11:36:48;;;;;;;1.67;0.88;;;18.40;55.80;;;;;;6090863;23;20208;-86
2024/03/12 11:39:30;;;;;;;2.08;1.00;;;18.20;56.10;;;;;;6050811;23;20167;-87
2024/03/12 11:42:39;;;;;;;2.83;1.00;;;18.30;56.80;;;;;;6005830;23;20162;-86
2024/03/12 11:45:10;;;;;;;1.48;1.00;;;18.20;56.20;;;;;;5888500;24;20188;-86
2024/03/12 11:47:42;;;;;;;2.53;1.20;;;18.20;56.00;;;;;;5890693;24;20161;-86
2024/03/12 11:50:30;;;;;;;12.10;1.15;;;18.20;56.40;;;;;;5895970;24;20214;-86
2024/03/12 11:53:17;;;;;;;1.27;0.90;;;18.20;56.20;;;;;;5884689;24;20629;-85
2024/03/12 11:56:10;;;;;;;2.70;1.13;;;18.30;56.00;;;;;;5884960;24;20154;-86
2024/03/12 11:58:46;;;;;;;1.55;0.90;;;18.20;55.90;;;;;;5884923;24;20146;-84
2024/03/12 12:01:22;;;;;;;2.05;1.02;;;18.20;56.30;;;;;;5886977;24;20165;-86
2024/03/12 12:03:59;;;;;;;2.15;1.25;;;18.20;56.10;;;;;;5913166;24;20183;-84
2024/03/12 12:06:30;;;;;;;1.60;1.13;;;18.10;56.20;;;;;;5935764;24;20198;-85
2024/03/12 12:09:05;;;;;;;2.30;1.02;;;18.20;56.00;;;;;;5911631;24;20200;-86
2024/03/12 12:11:36;;;;;;;1.13;0.93;;;18.10;56.20;;;;;;5934709;24;20601;-85
2024/03/12 12:14:04;;;;;;;1.20;0.90;;;18.20;56.00;;;;;;5950503;23;20235;-85
2024/03/12 12:16:30;;;;;;;1.65;1.00;;;18.20;56.10;;;;;;5994606;23;20163;-85
2024/03/12 12:19:06;;;;;;;1.10;0.90;;;18.20;55.80;;;;;;6055548;23;20151;-85
2024/03/12 12:21:33;;;;;;;1.60;1.05;;;18.20;55.90;;;;;;6138084;23;20230;-85
2024/03/12 12:24:00;;;;;;;1.23;0.90;;;18.20;56.00;;;;;;6136277;23;20131;-84
2024/03/12 12:26:26;;;;;;;2.17;0.80;;;18.20;55.80;;;;;;6109174;23;20139;-84
2024/03/12 12:28:53;;;;;;;0.82;0.80;;;18.20;56.00;;;;;;6108967;23;20144;-84
2024/03/12 12:31:23;;;;;;;1.13;0.98;;;18.20;56.20;;;;;;6110032;23;20151;-84
2024/03/12 12:33:55;;;;;;;1.83;1.17;;;18.20;56.20;;;;;;6090834;23;20268;-84
2024/03/12 12:36:25;;;;;;;2.17;1.08;;;18.20;56.20;;;;;;6068098;23;20163;-85
2024/03/12 12:38:53;;;;;;;1.67;0.93;;;18.20;56.10;;;;;;6094672;23;20139;-86
2024/03/12 12:41:22;;;;;;;2.05;0.90;;;18.10;56.00;;;;;;6142279;23;20149;-84
2024/03/12 12:43:59;;;;;;;1.58;1.00;;;18.20;55.70;;;;;;6117632;23;20151;-86
2024/03/12 12:46:29;;;;;;;0.85;0.82;;;18.20;55.90;;;;;;6091532;23;20155;-86
2024/03/12 12:48:55;;;;;;;1.83;0.73;;;18.20;55.90;;;;;;6088847;23;20151;-85
2024/03/12 12:51:23;;;;;;;1.65;0.90;;;18.20;55.80;;;;;;6115578;23;20142;-85
2024/03/12 12:53:51;;;;;;;1.33;1.00;;;18.20;55.80;;;;;;6114881;23;20140;-85
2024/03/12 12:56:19;;;;;;;1.58;0.90;;;18.30;55.60;;;;;;6116332;23;20151;-85
2024/03/12 12:58:47;;;;;;;1.15;0.82;;;18.20;55.80;;;;;;6116230;23;20556;-85
2024/03/12 13:01:15;;;;;;;1.80;0.90;;;18.30;55.90;;;;;;6093962;23;20190;-86
2024/03/12 13:03:45;;;;;;;1.67;0.90;;;18.20;56.00;;;;;;6121533;23;20150;-85
2024/03/12 13:06:20;;;;;;;1.60;1.02;;;18.20;55.70;;;;;;6122468;23;20179;-86
2024/03/12 13:08:52;;;;;;;1.13;0.82;;;18.20;55.80;;;;;;6093745;23;20277;-86
2024/03/12 13:11:21;;;;;;;1.42;1.00;;;18.20;56.00;;;;;;6055708;23;20165;-86
2024/03/12 13:13:55;;;;;;;1.50;1.00;;;18.20;55.70;;;;;;6057756;23;20188;-86
2024/03/12 13:16:30;;;;;;;1.05;0.90;;;18.20;55.60;;;;;;6082115;23;20164;-86
2024/03/12 13:18:56;;;;;;;0.93;0.80;;;18.30;55.40;;;;;;6033569;23;20235;-87
2024/03/12 13:21:39;;;;;;;1.48;0.85;;;18.30;55.60;;;;;;6058170;23;20161;-87
2024/03/12 13:24:06;;;;;;;0.73;0.73;;;18.30;55.60;;;;;;6058230;23;20245;-86
2024/03/12 13:26:37;;;;;;;1.00;0.85;;;18.30;55.60;;;;;;6034101;23;20181;-87
2024/03/12 13:29:05;;;;;;;1.25;0.88;;;18.30;55.40;;;;;;6033330;23;20160;-86
2024/03/12 13:31:36;;;;;;;1.08;0.93;;;18.30;55.40;;;;;;6057248;23;20158;-85
2024/03/12 13:34:09;;;;;;;1.35;1.00;;;18.30;55.40;;;;;;6056171;23;20154;-87
2024/03/12 13:36:35;;;;;;;1.42;0.85;;;18.30;55.40;;;;;;6057497;23;20160;-86
2024/03/12 13:39:02;;;;;;;1.08;0.95;;;18.30;54.80;;;;;;6034606;23;20149;-86
2024/03/12 13:41:29;;;;;;;1.40;0.90;;;18.40;54.90;;;;;;6011924;23;20158;-85
2024/03/12 13:43:55;;;;;;;1.50;0.85;;;18.40;54.90;;;;;;6082323;23;20204;-86
2024/03/12 13:46:22;;;;;;;2.30;1.30;;;18.40;55.20;;;;;;6057965;23;20193;-86
2024/03/12 13:48:57;;;;;;;2.00;0.90;;;18.40;54.80;;;;;;6059696;23;20158;-85
2024/03/12 13:51:32;;;;;;;1.05;0.90;;;18.50;54.40;;;;;;6058069;23;20153;-86
2024/03/12 13:53:58;;;;;;;1.55;1.00;;;18.50;54.70;;;;;;6056344;23;20608;-85
2024/03/12 13:56:30;;;;;;;1.40;0.82;;;18.50;54.40;;;;;;6055744;23;20193;-85
2024/03/12 13:58:57;;;;;;;1.50;0.80;;;18.50;54.70;;;;;;6081595;23;20146;-87
2024/03/12 14:01:26;;;;;;;1.10;0.85;;;18.40;54.90;;;;;;6081504;23;20153;-85
2024/03/12 14:03:55;;;;;;;1.50;1.00;;;18.40;55.00;;;;;;6055497;23;20651;-86
2024/03/12 14:06:22;;;;;;;1.95;0.80;;;18.40;55.00;;;;;;6055490;23;20229;-86